sensor_id;sensor_type;location;lat;lon;timestamp;temperature;humidity
56336;DHT22;42241;53.510;10.170;2023-02-15T00:01:23;5.30;99.90
56336;DHT22;42241;53.510;10.170;2023-02-15T00:03:50;5.20;99.90
56336;DHT22;42241;53.510;10.170;2023-02-15T00:06:16;5.20;99.90
56336;DHT22;42241;53.510;10.170;2023-02-15T00:08:42;5.10;99.90
56336;DHT22;42241;53.510;10.170;2023-02-15T00:11:08;5.10;99.90
56336;DHT22;42241;53.510;10.170;2023-02-15T00:13:39;5.20;99.90
56336;DHT22;42241;53.510;10.170;2023-02-15T00:16:11;5.10;99.90
56336;DHT22;42241;53.510;10.170;2023-02-15T00:18:39;5.10;99.90
56336;DHT22;42241;53.510;10.170;2023-02-15T00:21:08;5.10;99.90
56336;DHT22;42241;53.510;10.170;2023-02-15T00:23:34;5.00;99.90
56336;DHT22;42241;53.510;10.170;2023-02-15T00:26:04;5.00;99.90
56336;DHT22;42241;53.510;10.170;2023-02-15T00:28:31;4.90;99.90
56336;DHT22;42241;53.510;10.170;2023-02-15T00:31:07;4.90;99.90
56336;DHT22;42241;53.510;10.170;2023-02-15T00:33:35;5.00;99.90
56336;DHT22;42241;53.510;10.170;2023-02-15T00:36:01;5.00;99.90
56336;DHT22;42241;53.510;10.170;2023-02-15T00:38:27;5.20;99.90
56336;DHT22;42241;53.510;10.170;2023-02-15T00:40:56;5.00;99.90
56336;DHT22;42241;53.510;10.170;2023-02-15T00:43:22;5.10;99.90
56336;DHT22;42241;53.510;10.170;2023-02-15T00:45:47;5.20;99.90
56336;DHT22;42241;53.510;10.170;2023-02-15T00:48:15;5.10;99.90
56336;DHT22;42241;53.510;10.170;2023-02-15T00:50:41;5.10;99.90
56336;DHT22;42241;53.510;10.170;2023-02-15T00:53:06;5.20;99.90
56336;DHT22;42241;53.510;10.170;2023-02-15T00:55:32;5.10;99.90
56336;DHT22;42241;53.510;10.170;2023-02-15T00:57:58;5.10;99.90
56336;DHT22;42241;53.510;10.170;2023-02-15T01:00:26;5.10;99.90
56336;DHT22;42241;53.510;10.170;2023-02-15T01:02:51;5.10;99.90
56336;DHT22;42241;53.510;10.170;2023-02-15T01:05:17;5.00;99.90
56336;DHT22;42241;53.510;10.170;2023-02-15T01:07:42;5.00;99.90
56336;DHT22;42241;53.510;10.170;2023-02-15T01:10:08;5.00;99.90
56336;DHT22;42241;53.510;10.170;2023-02-15T01:12:33;4.90;99.90
56336;DHT22;42241;53.510;10.170;2023-02-15T01:15:01;4.90;99.90
56336;DHT22;42241;53.510;10.170;2023-02-15T01:17:27;5.00;99.90
56336;DHT22;42241;53.510;10.170;2023-02-15T01:19:52;5.00;99.90
56336;DHT22;42241;53.510;10.170;2023-02-15T01:22:18;5.00;99.90
56336;DHT22;42241;53.510;10.170;2023-02-15T01:24:44;5.00;99.90
56336;DHT22;42241;53.510;10.170;2023-02-15T01:27:09;5.00;99.90
56336;DHT22;42241;53.510;10.170;2023-02-15T01:29:35;5.00;99.90
56336;DHT22;42241;53.510;10.170;2023-02-15T01:32:00;4.80;99.90
56336;DHT22;42241;53.510;10.170;2023-02-15T01:34:29;4.90;99.90
56336;DHT22;42241;53.510;10.170;2023-02-15T01:36:54;4.90;99.90
56336;DHT22;42241;53.510;10.170;2023-02-15T01:39:19;4.90;99.90
56336;DHT22;42241;53.510;10.170;2023-02-15T01:41:45;4.90;99.90
56336;DHT22;42241;53.510;10.170;2023-02-15T01:46:57;5.00;99.90
56336;DHT22;42241;53.510;10.170;2023-02-15T01:49:25;4.90;99.90
56336;DHT22;42241;53.510;10.170;2023-02-15T01:51:54;4.80;99.90
56336;DHT22;42241;53.510;10.170;2023-02-15T01:56:45;4.70;99.90
56336;DHT22;42241;53.510;10.170;2023-02-15T01:59:16;4.60;99.90
56336;DHT22;42241;53.510;10.170;2023-02-15T02:01:45;4.60;99.90
56336;DHT22;42241;53.510;10.170;2023-02-15T02:06:46;4.70;99.90
56336;DHT22;42241;53.510;10.170;2023-02-15T02:09:12;4.50;99.90
56336;DHT22;42241;53.510;10.170;2023-02-15T02:11:38;4.50;99.90
56336;DHT22;42241;53.510;10.170;2023-02-15T02:14:06;4.50;99.90
56336;DHT22;42241;53.510;10.170;2023-02-15T02:16:36;4.50;99.90
56336;DHT22;42241;53.510;10.170;2023-02-15T02:29:43;4.70;99.90
56336;DHT22;42241;53.510;10.170;2023-02-15T02:32:20;4.70;99.90
56336;DHT22;42241;53.510;10.170;2023-02-15T02:35:23;4.80;99.90
56336;DHT22;42241;53.510;10.170;2023-02-15T02:42:59;4.70;99.90
56336;DHT22;42241;53.510;10.170;2023-02-15T02:45:32;4.70;99.90
56336;DHT22;42241;53.510;10.170;2023-02-15T02:48:00;4.60;99.90
56336;DHT22;42241;53.510;10.170;2023-02-15T02:50:28;4.70;99.90
56336;DHT22;42241;53.510;10.170;2023-02-15T02:52:58;4.70;99.90
56336;DHT22;42241;53.510;10.170;2023-02-15T02:58:05;4.70;99.90
56336;DHT22;42241;53.510;10.170;2023-02-15T03:00:32;4.60;99.90
56336;DHT22;42241;53.510;10.170;2023-02-15T03:03:02;4.60;99.90
56336;DHT22;42241;53.510;10.170;2023-02-15T03:05:33;4.40;99.90
56336;DHT22;42241;53.510;10.170;2023-02-15T03:08:02;4.50;99.90
56336;DHT22;42241;53.510;10.170;2023-02-15T03:10:31;4.60;99.90
56336;DHT22;42241;53.510;10.170;2023-02-15T03:12:58;4.50;99.90
56336;DHT22;42241;53.510;10.170;2023-02-15T03:15:25;4.40;99.90
56336;DHT22;42241;53.510;10.170;2023-02-15T03:18:12;4.30;99.90
56336;DHT22;42241;53.510;10.170;2023-02-15T03:20:38;4.30;99.90
56336;DHT22;42241;53.510;10.170;2023-02-15T03:23:07;4.20;99.90
56336;DHT22;42241;53.510;10.170;2023-02-15T03:25:37;4.20;99.90
56336;DHT22;42241;53.510;10.170;2023-02-15T03:28:05;4.20;99.90
56336;DHT22;42241;53.510;10.170;2023-02-15T03:30:37;4.20;99.90
56336;DHT22;42241;53.510;10.170;2023-02-15T03:33:04;4.20;99.90
56336;DHT22;42241;53.510;10.170;2023-02-15T03:38:28;4.20;99.90
56336;DHT22;42241;53.510;10.170;2023-02-15T03:40:58;4.20;99.90
56336;DHT22;42241;53.510;10.170;2023-02-15T03:46:12;4.00;99.90
56336;DHT22;42241;53.510;10.170;2023-02-15T03:48:41;3.90;99.90
56336;DHT22;42241;53.510;10.170;2023-02-15T03:51:12;4.00;99.90
56336;DHT22;42241;53.510;10.170;2023-02-15T03:53:58;3.90;99.90
56336;DHT22;42241;53.510;10.170;2023-02-15T03:56:24;3.90;99.90
56336;DHT22;42241;53.510;10.170;2023-02-15T03:58:50;3.90;99.90
56336;DHT22;42241;53.510;10.170;2023-02-15T04:04:19;3.90;99.90
56336;DHT22;42241;53.510;10.170;2023-02-15T04:06:45;3.80;99.90
56336;DHT22;42241;53.510;10.170;2023-02-15T04:09:11;3.70;99.90
56336;DHT22;42241;53.510;10.170;2023-02-15T04:11:55;3.70;99.90
56336;DHT22;42241;53.510;10.170;2023-02-15T04:14:21;3.60;99.90
56336;DHT22;42241;53.510;10.170;2023-02-15T04:17:05;3.40;99.90
56336;DHT22;42241;53.510;10.170;2023-02-15T04:19:31;3.40;99.90
56336;DHT22;42241;53.510;10.170;2023-02-15T04:22:16;3.50;99.90
56336;DHT22;42241;53.510;10.170;2023-02-15T04:25:00;3.60;99.90
56336;DHT22;42241;53.510;10.170;2023-02-15T04:27:41;3.60;99.90
56336;DHT22;42241;53.510;10.170;2023-02-15T04:30:08;3.50;99.90
56336;DHT22;42241;53.510;10.170;2023-02-15T04:32:34;3.40;99.90
56336;DHT22;42241;53.510;10.170;2023-02-15T04:35:00;3.50;99.90
56336;DHT22;42241;53.510;10.170;2023-02-15T04:37:25;3.50;99.90
56336;DHT22;42241;53.510;10.170;2023-02-15T04:39:51;3.50;99.90
56336;DHT22;42241;53.510;10.170;2023-02-15T04:42:16;3.50;99.90
56336;DHT22;42241;53.510;10.170;2023-02-15T04:44:42;3.60;99.90
56336;DHT22;42241;53.510;10.170;2023-02-15T04:47:07;3.60;99.90
56336;DHT22;42241;53.510;10.170;2023-02-15T04:49:35;3.50;99.90
56336;DHT22;42241;53.510;10.170;2023-02-15T04:52:01;3.50;99.90
56336;DHT22;42241;53.510;10.170;2023-02-15T04:54:26;3.50;99.90
56336;DHT22;42241;53.510;10.170;2023-02-15T04:56:55;3.30;99.90
56336;DHT22;42241;53.510;10.170;2023-02-15T04:59:24;3.20;99.90
56336;DHT22;42241;53.510;10.170;2023-02-15T05:01:49;3.20;99.90
56336;DHT22;42241;53.510;10.170;2023-02-15T05:04:15;3.30;99.90
56336;DHT22;42241;53.510;10.170;2023-02-15T05:06:40;3.30;99.90
56336;DHT22;42241;53.510;10.170;2023-02-15T05:09:06;3.20;99.90
56336;DHT22;42241;53.510;10.170;2023-02-15T05:11:35;2.90;99.90
56336;DHT22;42241;53.510;10.170;2023-02-15T05:14:03;2.80;99.90
56336;DHT22;42241;53.510;10.170;2023-02-15T05:16:49;2.90;99.90
56336;DHT22;42241;53.510;10.170;2023-02-15T05:19:14;3.00;99.90
56336;DHT22;42241;53.510;10.170;2023-02-15T05:21:40;3.00;99.90
56336;DHT22;42241;53.510;10.170;2023-02-15T05:24:08;3.10;99.90
56336;DHT22;42241;53.510;10.170;2023-02-15T05:26:55;3.00;99.90
56336;DHT22;42241;53.510;10.170;2023-02-15T05:29:39;3.00;99.90
56336;DHT22;42241;53.510;10.170;2023-02-15T05:32:05;3.00;99.90
56336;DHT22;42241;53.510;10.170;2023-02-15T05:34:30;2.80;99.90
56336;DHT22;42241;53.510;10.170;2023-02-15T05:36:56;2.70;99.90
56336;DHT22;42241;53.510;10.170;2023-02-15T05:39:22;2.60;99.90
56336;DHT22;42241;53.510;10.170;2023-02-15T05:41:48;2.70;99.90
56336;DHT22;42241;53.510;10.170;2023-02-15T05:44:14;2.80;99.90
56336;DHT22;42241;53.510;10.170;2023-02-15T05:46:42;2.90;99.90
56336;DHT22;42241;53.510;10.170;2023-02-15T05:49:12;2.90;99.90
56336;DHT22;42241;53.510;10.170;2023-02-15T05:51:40;2.90;99.90
56336;DHT22;42241;53.510;10.170;2023-02-15T05:54:08;2.90;99.90
56336;DHT22;42241;53.510;10.170;2023-02-15T05:56:33;2.90;99.90
56336;DHT22;42241;53.510;10.170;2023-02-15T05:58:59;2.90;99.90
56336;DHT22;42241;53.510;10.170;2023-02-15T06:01:26;2.90;99.90
56336;DHT22;42241;53.510;10.170;2023-02-15T06:03:52;3.00;99.90
56336;DHT22;42241;53.510;10.170;2023-02-15T06:06:19;3.00;99.90
56336;DHT22;42241;53.510;10.170;2023-02-15T06:08:49;2.90;99.90
56336;DHT22;42241;53.510;10.170;2023-02-15T06:11:15;2.90;99.90
56336;DHT22;42241;53.510;10.170;2023-02-15T06:13:41;3.00;99.90
56336;DHT22;42241;53.510;10.170;2023-02-15T06:16:06;2.80;99.90
56336;DHT22;42241;53.510;10.170;2023-02-15T06:18:32;2.80;99.90
56336;DHT22;42241;53.510;10.170;2023-02-15T06:21:02;2.70;99.90
56336;DHT22;42241;53.510;10.170;2023-02-15T06:23:30;2.60;99.90
56336;DHT22;42241;53.510;10.170;2023-02-15T06:25:55;2.60;99.90
56336;DHT22;42241;53.510;10.170;2023-02-15T06:28:21;2.70;99.90
56336;DHT22;42241;53.510;10.170;2023-02-15T06:30:50;2.70;99.90
56336;DHT22;42241;53.510;10.170;2023-02-15T06:33:16;2.60;99.90
56336;DHT22;42241;53.510;10.170;2023-02-15T06:35:44;2.30;99.90
56336;DHT22;42241;53.510;10.170;2023-02-15T06:38:12;2.20;99.90
56336;DHT22;42241;53.510;10.170;2023-02-15T06:40:37;2.30;99.90
56336;DHT22;42241;53.510;10.170;2023-02-15T06:43:03;2.50;99.90
56336;DHT22;42241;53.510;10.170;2023-02-15T06:45:29;2.60;99.90
56336;DHT22;42241;53.510;10.170;2023-02-15T06:47:54;2.70;99.90
56336;DHT22;42241;53.510;10.170;2023-02-15T06:50:20;2.60;99.90
56336;DHT22;42241;53.510;10.170;2023-02-15T06:52:45;2.60;99.90
56336;DHT22;42241;53.510;10.170;2023-02-15T06:55:11;2.60;99.90
56336;DHT22;42241;53.510;10.170;2023-02-15T06:57:36;2.60;99.90
56336;DHT22;42241;53.510;10.170;2023-02-15T07:00:04;2.60;99.90
56336;DHT22;42241;53.510;10.170;2023-02-15T07:02:31;2.70;99.90
56336;DHT22;42241;53.510;10.170;2023-02-15T07:04:57;2.70;99.90
56336;DHT22;42241;53.510;10.170;2023-02-15T07:07:22;2.70;99.90
56336;DHT22;42241;53.510;10.170;2023-02-15T07:09:48;2.70;99.90
56336;DHT22;42241;53.510;10.170;2023-02-15T07:12:13;2.70;99.90
56336;DHT22;42241;53.510;10.170;2023-02-15T07:14:57;2.70;99.90
56336;DHT22;42241;53.510;10.170;2023-02-15T07:17:25;2.70;99.90
56336;DHT22;42241;53.510;10.170;2023-02-15T07:19:56;2.60;99.90
56336;DHT22;42241;53.510;10.170;2023-02-15T07:22:21;2.60;99.90
56336;DHT22;42241;53.510;10.170;2023-02-15T07:24:47;2.60;99.90
56336;DHT22;42241;53.510;10.170;2023-02-15T07:27:16;2.60;99.90
56336;DHT22;42241;53.510;10.170;2023-02-15T07:29:44;2.50;99.90
56336;DHT22;42241;53.510;10.170;2023-02-15T07:32:12;2.50;99.90
56336;DHT22;42241;53.510;10.170;2023-02-15T07:34:40;2.50;99.90
56336;DHT22;42241;53.510;10.170;2023-02-15T07:37:05;2.50;99.90
56336;DHT22;42241;53.510;10.170;2023-02-15T07:39:31;2.50;99.90
56336;DHT22;42241;53.510;10.170;2023-02-15T07:41:59;2.40;99.90
56336;DHT22;42241;53.510;10.170;2023-02-15T07:44:25;2.60;99.90
56336;DHT22;42241;53.510;10.170;2023-02-15T07:46:52;2.50;99.90
56336;DHT22;42241;53.510;10.170;2023-02-15T07:49:18;2.60;99.90
56336;DHT22;42241;53.510;10.170;2023-02-15T07:51:46;2.70;99.90
56336;DHT22;42241;53.510;10.170;2023-02-15T07:54:11;2.60;99.90
56336;DHT22;42241;53.510;10.170;2023-02-15T07:56:39;2.70;99.90
56336;DHT22;42241;53.510;10.170;2023-02-15T07:59:05;2.50;99.90
56336;DHT22;42241;53.510;10.170;2023-02-15T08:01:35;2.50;99.90
56336;DHT22;42241;53.510;10.170;2023-02-15T08:04:01;2.50;99.90
56336;DHT22;42241;53.510;10.170;2023-02-15T08:06:28;2.60;99.90
56336;DHT22;42241;53.510;10.170;2023-02-15T08:08:54;2.60;99.90
56336;DHT22;42241;53.510;10.170;2023-02-15T08:13:55;2.50;99.90
56336;DHT22;42241;53.510;10.170;2023-02-15T08:16:34;2.60;99.90
56336;DHT22;42241;53.510;10.170;2023-02-15T08:19:10;2.60;99.90
56336;DHT22;42241;53.510;10.170;2023-02-15T08:21:39;2.70;99.90
56336;DHT22;42241;53.510;10.170;2023-02-15T08:24:06;2.50;99.90
56336;DHT22;42241;53.510;10.170;2023-02-15T08:26:32;2.60;99.90
56336;DHT22;42241;53.510;10.170;2023-02-15T08:29:00;2.40;99.90
56336;DHT22;42241;53.510;10.170;2023-02-15T08:31:28;2.30;99.90
56336;DHT22;42241;53.510;10.170;2023-02-15T08:33:56;2.40;99.90
56336;DHT22;42241;53.510;10.170;2023-02-15T08:36:23;2.50;99.90
56336;DHT22;42241;53.510;10.170;2023-02-15T08:38:49;2.40;99.90
56336;DHT22;42241;53.510;10.170;2023-02-15T08:43:44;2.50;99.90
56336;DHT22;42241;53.510;10.170;2023-02-15T08:46:15;2.50;99.90
56336;DHT22;42241;53.510;10.170;2023-02-15T08:48:41;2.50;99.90
56336;DHT22;42241;53.510;10.170;2023-02-15T08:53:44;2.30;99.90
56336;DHT22;42241;53.510;10.170;2023-02-15T08:56:10;2.30;99.90
56336;DHT22;42241;53.510;10.170;2023-02-15T08:58:36;2.30;99.90
56336;DHT22;42241;53.510;10.170;2023-02-15T09:01:07;2.40;99.90
56336;DHT22;42241;53.510;10.170;2023-02-15T09:03:35;2.40;99.90
56336;DHT22;42241;53.510;10.170;2023-02-15T09:06:01;2.30;99.90
56336;DHT22;42241;53.510;10.170;2023-02-15T09:08:27;2.40;99.90
56336;DHT22;42241;53.510;10.170;2023-02-15T09:10:54;2.40;99.90
56336;DHT22;42241;53.510;10.170;2023-02-15T09:13:28;2.50;99.90
56336;DHT22;42241;53.510;10.170;2023-02-15T09:15:58;2.60;99.90
56336;DHT22;42241;53.510;10.170;2023-02-15T09:18:27;2.60;99.90
56336;DHT22;42241;53.510;10.170;2023-02-15T09:20:52;2.80;99.90
56336;DHT22;42241;53.510;10.170;2023-02-15T09:23:18;2.90;99.90
56336;DHT22;42241;53.510;10.170;2023-02-15T09:25:44;3.10;99.90
56336;DHT22;42241;53.510;10.170;2023-02-15T09:28:14;3.00;99.90
56336;DHT22;42241;53.510;10.170;2023-02-15T09:30:42;3.10;99.90
56336;DHT22;42241;53.510;10.170;2023-02-15T09:33:08;3.10;99.90
56336;DHT22;42241;53.510;10.170;2023-02-15T09:35:33;3.00;99.90
56336;DHT22;42241;53.510;10.170;2023-02-15T09:37:59;3.00;99.90
56336;DHT22;42241;53.510;10.170;2023-02-15T09:40:24;3.10;99.90
56336;DHT22;42241;53.510;10.170;2023-02-15T09:52:57;3.20;99.90
56336;DHT22;42241;53.510;10.170;2023-02-15T10:19:04;3.70;99.90
56336;DHT22;42241;53.510;10.170;2023-02-15T10:24:21;3.40;99.90
56336;DHT22;42241;53.510;10.170;2023-02-15T10:26:55;3.60;99.90
56336;DHT22;42241;53.510;10.170;2023-02-15T10:29:38;3.60;99.90
56336;DHT22;42241;53.510;10.170;2023-02-15T10:32:22;3.70;99.90
56336;DHT22;42241;53.510;10.170;2023-02-15T10:34:53;3.60;99.90
56336;DHT22;42241;53.510;10.170;2023-02-15T10:56:31;4.20;99.90
56336;DHT22;42241;53.510;10.170;2023-02-15T11:06:09;4.30;99.90
56336;DHT22;42241;53.510;10.170;2023-02-15T11:08:41;4.10;99.90
56336;DHT22;42241;53.510;10.170;2023-02-15T11:11:13;4.10;99.90
56336;DHT22;42241;53.510;10.170;2023-02-15T11:13:43;3.90;99.90
56336;DHT22;42241;53.510;10.170;2023-02-15T11:16:14;3.90;99.90
56336;DHT22;42241;53.510;10.170;2023-02-15T11:19:01;4.10;99.90
56336;DHT22;42241;53.510;10.170;2023-02-15T11:21:33;4.20;99.90
56336;DHT22;42241;53.510;10.170;2023-02-15T11:24:07;4.40;99.90
56336;DHT22;42241;53.510;10.170;2023-02-15T11:26:47;4.20;99.90
56336;DHT22;42241;53.510;10.170;2023-02-15T11:31:56;4.50;99.90
56336;DHT22;42241;53.510;10.170;2023-02-15T11:34:38;4.70;99.90
56336;DHT22;42241;53.510;10.170;2023-02-15T11:37:09;4.90;99.90
56336;DHT22;42241;53.510;10.170;2023-02-15T11:39:36;4.90;99.90
56336;DHT22;42241;53.510;10.170;2023-02-15T11:42:04;5.00;99.90
56336;DHT22;42241;53.510;10.170;2023-02-15T11:44:34;4.90;99.90
56336;DHT22;42241;53.510;10.170;2023-02-15T11:47:08;4.80;99.90
56336;DHT22;42241;53.510;10.170;2023-02-15T11:49:34;5.10;99.90
56336;DHT22;42241;53.510;10.170;2023-02-15T11:52:02;5.40;99.90
56336;DHT22;42241;53.510;10.170;2023-02-15T11:54:30;5.40;99.90
56336;DHT22;42241;53.510;10.170;2023-02-15T11:56:59;5.50;99.90
56336;DHT22;42241;53.510;10.170;2023-02-15T11:59:27;5.50;99.90
56336;DHT22;42241;53.510;10.170;2023-02-15T12:01:57;5.50;99.90
56336;DHT22;42241;53.510;10.170;2023-02-15T12:04:28;5.60;99.90
56336;DHT22;42241;53.510;10.170;2023-02-15T12:07:13;5.60;99.90
56336;DHT22;42241;53.510;10.170;2023-02-15T12:09:50;5.40;99.90
56336;DHT22;42241;53.510;10.170;2023-02-15T12:12:28;5.20;99.90
56336;DHT22;42241;53.510;10.170;2023-02-15T12:15:00;5.30;99.90
56336;DHT22;42241;53.510;10.170;2023-02-15T12:17:29;5.20;99.90
56336;DHT22;42241;53.510;10.170;2023-02-15T12:19:57;4.90;99.90
56336;DHT22;42241;53.510;10.170;2023-02-15T12:22:27;4.90;99.90
56336;DHT22;42241;53.510;10.170;2023-02-15T12:24:55;5.00;99.90
56336;DHT22;42241;53.510;10.170;2023-02-15T12:27:23;5.00;99.90
56336;DHT22;42241;53.510;10.170;2023-02-15T12:30:06;5.10;99.90
56336;DHT22;42241;53.510;10.170;2023-02-15T12:32:46;5.20;99.90
56336;DHT22;42241;53.510;10.170;2023-02-15T12:35:13;5.40;99.90
56336;DHT22;42241;53.510;10.170;2023-02-15T12:37:51;5.90;99.90
56336;DHT22;42241;53.510;10.170;2023-02-15T12:40:21;6.40;99.90
56336;DHT22;42241;53.510;10.170;2023-02-15T12:42:47;6.60;99.90
56336;DHT22;42241;53.510;10.170;2023-02-15T12:45:24;7.30;99.90
56336;DHT22;42241;53.510;10.170;2023-02-15T12:50:36;7.70;99.90
56336;DHT22;42241;53.510;10.170;2023-02-15T12:55:33;8.00;99.90
56336;DHT22;42241;53.510;10.170;2023-02-15T12:58:05;8.20;99.90
56336;DHT22;42241;53.510;10.170;2023-02-15T13:00:33;8.50;99.90
56336;DHT22;42241;53.510;10.170;2023-02-15T13:03:04;8.90;99.90
56336;DHT22;42241;53.510;10.170;2023-02-15T13:07:56;9.20;99.90
56336;DHT22;42241;53.510;10.170;2023-02-15T13:10:30;9.00;99.90
56336;DHT22;42241;53.510;10.170;2023-02-15T13:12:57;9.00;99.90
56336;DHT22;42241;53.510;10.170;2023-02-15T13:15:23;9.10;99.90
56336;DHT22;42241;53.510;10.170;2023-02-15T13:17:52;9.80;99.90
56336;DHT22;42241;53.510;10.170;2023-02-15T13:20:20;10.40;99.90
56336;DHT22;42241;53.510;10.170;2023-02-15T13:22:55;11.30;99.90
56336;DHT22;42241;53.510;10.170;2023-02-15T13:25:23;11.50;99.90
56336;DHT22;42241;53.510;10.170;2023-02-15T13:27:53;11.50;99.90
56336;DHT22;42241;53.510;10.170;2023-02-15T13:30:30;11.50;99.90
56336;DHT22;42241;53.510;10.170;2023-02-15T13:33:00;11.30;99.90
56336;DHT22;42241;53.510;10.170;2023-02-15T13:35:32;10.90;99.90
56336;DHT22;42241;53.510;10.170;2023-02-15T13:58:24;10.40;99.90
56336;DHT22;42241;53.510;10.170;2023-02-15T14:00:56;10.60;99.90
56336;DHT22;42241;53.510;10.170;2023-02-15T14:09:07;9.90;99.90
56336;DHT22;42241;53.510;10.170;2023-02-15T14:12:10;9.40;99.90
56336;DHT22;42241;53.510;10.170;2023-02-15T14:19:48;8.60;99.90
56336;DHT22;42241;53.510;10.170;2023-02-15T14:25:04;8.30;99.90
56336;DHT22;42241;53.510;10.170;2023-02-15T14:30:21;8.30;99.90
56336;DHT22;42241;53.510;10.170;2023-02-15T14:32:51;8.30;99.90
56336;DHT22;42241;53.510;10.170;2023-02-15T14:35:22;8.20;99.90
56336;DHT22;42241;53.510;10.170;2023-02-15T14:43:24;8.30;99.90
56336;DHT22;42241;53.510;10.170;2023-02-15T14:45:58;8.20;99.90
56336;DHT22;42241;53.510;10.170;2023-02-15T14:48:42;8.10;99.90
56336;DHT22;42241;53.510;10.170;2023-02-15T14:51:11;8.10;99.90
56336;DHT22;42241;53.510;10.170;2023-02-15T14:53:54;8.20;99.90
56336;DHT22;42241;53.510;10.170;2023-02-15T14:56:25;8.10;99.90
56336;DHT22;42241;53.510;10.170;2023-02-15T15:01:53;8.00;99.90
56336;DHT22;42241;53.510;10.170;2023-02-15T15:04:12;7.90;99.90
56336;DHT22;42241;53.510;10.170;2023-02-15T15:06:40;7.90;99.90
56336;DHT22;42241;53.510;10.170;2023-02-15T15:09:11;7.80;99.90
56336;DHT22;42241;53.510;10.170;2023-02-15T15:11:39;7.80;99.90
56336;DHT22;42241;53.510;10.170;2023-02-15T15:14:08;7.80;99.90
56336;DHT22;42241;53.510;10.170;2023-02-15T15:19:03;7.80;99.90
56336;DHT22;42241;53.510;10.170;2023-02-15T15:29:46;7.70;99.90
56336;DHT22;42241;53.510;10.170;2023-02-15T15:32:11;7.60;99.90
56336;DHT22;42241;53.510;10.170;2023-02-15T15:34:54;7.60;99.90
56336;DHT22;42241;53.510;10.170;2023-02-15T15:37:32;7.50;99.90
56336;DHT22;42241;53.510;10.170;2023-02-15T15:50:15;7.00;99.90
56336;DHT22;42241;53.510;10.170;2023-02-15T15:52:45;7.00;99.90
56336;DHT22;42241;53.510;10.170;2023-02-15T15:55:18;6.90;99.90
56336;DHT22;42241;53.510;10.170;2023-02-15T15:57:49;6.70;99.90
56336;DHT22;42241;53.510;10.170;2023-02-15T16:00:33;6.60;99.90
56336;DHT22;42241;53.510;10.170;2023-02-15T16:02:59;6.50;99.90
56336;DHT22;42241;53.510;10.170;2023-02-15T16:05:27;6.40;99.90
56336;DHT22;42241;53.510;10.170;2023-02-15T16:08:01;6.40;99.90
56336;DHT22;42241;53.510;10.170;2023-02-15T16:10:27;6.30;99.90
56336;DHT22;42241;53.510;10.170;2023-02-15T16:12:57;6.30;99.90
56336;DHT22;42241;53.510;10.170;2023-02-15T16:15:27;6.20;99.90
56336;DHT22;42241;53.510;10.170;2023-02-15T16:17:57;6.10;99.90
56336;DHT22;42241;53.510;10.170;2023-02-15T16:20:27;6.00;99.90
56336;DHT22;42241;53.510;10.170;2023-02-15T16:25:42;5.80;99.90
56336;DHT22;42241;53.510;10.170;2023-02-15T16:28:11;5.70;99.90
56336;DHT22;42241;53.510;10.170;2023-02-15T16:30:44;5.70;99.90
56336;DHT22;42241;53.510;10.170;2023-02-15T16:33:15;5.60;99.90
56336;DHT22;42241;53.510;10.170;2023-02-15T16:35:52;5.60;99.90
56336;DHT22;42241;53.510;10.170;2023-02-15T16:38:19;5.50;99.90
56336;DHT22;42241;53.510;10.170;2023-02-15T16:40:52;5.50;99.90
56336;DHT22;42241;53.510;10.170;2023-02-15T16:43:23;5.50;99.90
56336;DHT22;42241;53.510;10.170;2023-02-15T16:45:50;5.50;99.90
56336;DHT22;42241;53.510;10.170;2023-02-15T16:48:20;5.50;99.90
56336;DHT22;42241;53.510;10.170;2023-02-15T16:50:51;5.50;99.90
56336;DHT22;42241;53.510;10.170;2023-02-15T16:53:18;5.50;99.90
56336;DHT22;42241;53.510;10.170;2023-02-15T16:55:48;5.50;99.90
56336;DHT22;42241;53.510;10.170;2023-02-15T16:58:16;5.50;99.90
56336;DHT22;42241;53.510;10.170;2023-02-15T17:00:47;5.40;99.90
56336;DHT22;42241;53.510;10.170;2023-02-15T17:05:52;5.40;99.90
56336;DHT22;42241;53.510;10.170;2023-02-15T17:08:31;5.40;99.90
56336;DHT22;42241;53.510;10.170;2023-02-15T17:13:37;5.40;99.90
56336;DHT22;42241;53.510;10.170;2023-02-15T17:20:58;5.30;99.90
56336;DHT22;42241;53.510;10.170;2023-02-15T17:25:58;5.20;99.90
56336;DHT22;42241;53.510;10.170;2023-02-15T17:28:24;5.20;99.90
56336;DHT22;42241;53.510;10.170;2023-02-15T17:30:51;5.20;99.90
56336;DHT22;42241;53.510;10.170;2023-02-15T17:36:13;5.20;99.90
56336;DHT22;42241;53.510;10.170;2023-02-15T17:41:22;5.10;99.90
56336;DHT22;42241;53.510;10.170;2023-02-15T17:43:47;5.10;99.90
56336;DHT22;42241;53.510;10.170;2023-02-15T17:46:13;5.00;99.90
56336;DHT22;42241;53.510;10.170;2023-02-15T17:48:45;4.90;99.90
56336;DHT22;42241;53.510;10.170;2023-02-15T17:51:12;4.90;99.90
56336;DHT22;42241;53.510;10.170;2023-02-15T17:53:40;4.80;99.90
56336;DHT22;42241;53.510;10.170;2023-02-15T17:56:06;4.90;99.90
56336;DHT22;42241;53.510;10.170;2023-02-15T17:58:40;4.90;99.90
56336;DHT22;42241;53.510;10.170;2023-02-15T18:01:06;4.90;99.90
56336;DHT22;42241;53.510;10.170;2023-02-15T18:03:51;4.90;99.90
56336;DHT22;42241;53.510;10.170;2023-02-15T18:06:36;4.90;99.90
56336;DHT22;42241;53.510;10.170;2023-02-15T18:09:20;4.90;99.90
56336;DHT22;42241;53.510;10.170;2023-02-15T18:12:22;4.90;99.90
56336;DHT22;42241;53.510;10.170;2023-02-15T18:14:50;4.80;99.90
56336;DHT22;42241;53.510;10.170;2023-02-15T18:17:16;4.70;99.90
56336;DHT22;42241;53.510;10.170;2023-02-15T18:19:44;4.70;99.90
56336;DHT22;42241;53.510;10.170;2023-02-15T18:22:11;4.70;99.90
56336;DHT22;42241;53.510;10.170;2023-02-15T18:24:37;4.60;99.90
56336;DHT22;42241;53.510;10.170;2023-02-15T18:27:06;4.50;99.90
56336;DHT22;42241;53.510;10.170;2023-02-15T18:29:31;4.40;99.90
56336;DHT22;42241;53.510;10.170;2023-02-15T18:32:00;4.40;99.90
56336;DHT22;42241;53.510;10.170;2023-02-15T18:34:27;4.40;99.90
56336;DHT22;42241;53.510;10.170;2023-02-15T18:36:55;4.40;99.90
56336;DHT22;42241;53.510;10.170;2023-02-15T18:41:59;4.30;99.90
56336;DHT22;42241;53.510;10.170;2023-02-15T18:44:24;4.20;99.90
56336;DHT22;42241;53.510;10.170;2023-02-15T18:46:50;4.10;99.90
56336;DHT22;42241;53.510;10.170;2023-02-15T18:49:18;4.10;99.90
56336;DHT22;42241;53.510;10.170;2023-02-15T18:51:43;4.00;99.90
56336;DHT22;42241;53.510;10.170;2023-02-15T18:54:12;4.00;99.90
56336;DHT22;42241;53.510;10.170;2023-02-15T18:56:42;3.90;99.90
56336;DHT22;42241;53.510;10.170;2023-02-15T18:59:14;3.90;99.90
56336;DHT22;42241;53.510;10.170;2023-02-15T19:01:40;3.90;99.90
56336;DHT22;42241;53.510;10.170;2023-02-15T19:04:06;3.90;99.90
56336;DHT22;42241;53.510;10.170;2023-02-15T19:06:32;3.90;99.90
56336;DHT22;42241;53.510;10.170;2023-02-15T19:08:57;3.80;99.90